Time;durP1;ratioP1;P1;durP2;ratioP2;P2;SDS_P1;SDS_P2;PMS_P1;PMS_P2;Temp;Humidity;BMP_temperature;BMP_pressure;BME280_temperature;BME280_humidity;BME280_pressure;Samples;Min_cycle;Max_cycle;Signal;HPM_P1;HPM_P2
2022/11/19 00:01:22;;;;;;;25.33;10.75;;;-0.10;99.90;;;;;;5093198;28;20080;-77
2022/11/19 00:03:48;;;;;;;19.45;8.57;;;-0.20;99.90;;;;;;5095968;28;20039;-77
2022/11/19 00:06:22;;;;;;;20.55;8.93;;;-0.20;99.90;;;;;;5094069;28;20096;-78
2022/11/19 00:08:48;;;;;;;20.23;9.77;;;-0.20;99.90;;;;;;5094383;28;20020;-77
2022/11/19 00:12:53;;;;;;;19.58;8.95;;;-0.20;99.90;;;;;;5095582;28;20094;-76
2022/11/19 00:14:03;;;;;;;16.67;8.18;;;-0.20;99.90;;;;;;5096739;28;20050;-76
2022/11/19 00:16:28;;;;;;;17.48;8.73;;;-0.20;99.90;;;;;;5095319;28;20060;-78
2022/11/19 00:18:54;;;;;;;18.30;8.73;;;-0.20;99.90;;;;;;5093430;28;20032;-77
2022/11/19 00:21:19;;;;;;;19.52;9.23;;;-0.20;99.90;;;;;;5092480;28;20033;-77
2022/11/19 00:23:45;;;;;;;18.23;8.52;;;-0.30;99.90;;;;;;5095859;28;20024;-78
2022/11/19 00:26:12;;;;;;;16.27;8.57;;;-0.30;99.90;;;;;;5094816;28;20029;-77
2022/11/19 00:28:39;;;;;;;20.33;8.77;;;-0.20;99.90;;;;;;5098256;28;20051;-79
2022/11/19 00:31:10;;;;;;;14.50;7.60;;;-0.30;99.90;;;;;;5096694;28;20036;-77
2022/11/19 00:33:38;;;;;;;19.30;8.70;;;-0.30;99.90;;;;;;5094453;28;20052;-80
2022/11/19 00:36:06;;;;;;;16.63;8.35;;;-0.30;99.90;;;;;;5094560;28;20040;-77
2022/11/19 00:38:32;;;;;;;18.35;8.38;;;-0.30;99.90;;;;;;5097647;28;20119;-78
2022/11/19 00:40:58;;;;;;;19.85;8.25;;;-0.30;99.90;;;;;;5093601;28;20459;-77
2022/11/19 00:46:08;;;;;;;18.17;8.30;;;-0.40;99.90;;;;;;5096461;28;20057;-80
2022/11/19 00:48:34;;;;;;;18.55;8.48;;;-0.40;99.90;;;;;;5095891;28;20051;-77
2022/11/19 00:51:00;;;;;;;16.60;8.38;;;-0.50;99.90;;;;;;5094967;28;20036;-78
2022/11/19 00:53:26;;;;;;;20.00;8.35;;;-0.40;99.90;;;;;;5093725;28;20013;-76
2022/11/19 00:55:52;;;;;;;18.67;8.50;;;-0.50;99.90;;;;;;5094228;28;20024;-79
2022/11/19 00:58:18;;;;;;;20.27;9.20;;;-0.50;99.90;;;;;;5096434;28;20028;-77
2022/11/19 01:00:44;;;;;;;18.75;8.57;;;-0.40;99.90;;;;;;5095075;28;20032;-77
2022/11/19 01:03:10;;;;;;;22.15;8.90;;;-0.50;99.90;;;;;;5092738;28;20033;-79
2022/11/19 01:05:36;;;;;;;19.42;9.02;;;-0.50;99.90;;;;;;5092279;28;20054;-77
2022/11/19 01:08:02;;;;;;;19.98;7.75;;;-0.50;99.90;;;;;;5095406;28;20020;-77
2022/11/19 01:10:28;;;;;;;17.10;8.18;;;-0.50;99.90;;;;;;5092431;28;20060;-76
2022/11/19 01:15:38;;;;;;;21.63;8.45;;;-0.60;99.90;;;;;;5095375;28;20027;-76
2022/11/19 01:18:04;;;;;;;17.90;8.75;;;-0.60;99.90;;;;;;5090313;28;20040;-78
2022/11/19 01:20:30;;;;;;;19.52;8.65;;;-0.60;99.90;;;;;;5095333;28;20450;-76
2022/11/19 01:22:55;;;;;;;18.30;8.85;;;-0.60;99.90;;;;;;5091655;28;20131;-75
2022/11/19 01:25:21;;;;;;;17.00;7.93;;;-0.60;99.90;;;;;;5095623;28;20031;-77
2022/11/19 01:27:50;;;;;;;21.92;7.95;;;-0.60;99.90;;;;;;5094868;28;20135;-79
2022/11/19 01:30:16;;;;;;;16.33;8.15;;;-0.70;99.90;;;;;;5096206;28;20024;-75
2022/11/19 01:32:41;;;;;;;18.17;9.00;;;-0.70;99.90;;;;;;5096573;28;20016;-79
2022/11/19 01:35:07;;;;;;;16.48;8.57;;;-0.60;99.90;;;;;;5094444;28;20410;-80
2022/11/19 01:37:33;;;;;;;20.50;8.55;;;-0.70;99.90;;;;;;5090769;28;20036;-76
2022/11/19 01:39:59;;;;;;;18.67;8.25;;;-0.70;99.90;;;;;;5096509;28;20099;-76
2022/11/19 01:45:35;;;;;;;20.67;8.05;;;-0.70;99.90;;;;;;5093983;28;20051;-76
2022/11/19 01:48:14;;;;;;;18.33;8.27;;;-0.70;99.90;;;;;;5091289;28;20054;-76
2022/11/19 01:50:47;;;;;;;18.55;8.48;;;-0.70;99.90;;;;;;5092183;28;20075;-76
2022/11/19 01:53:18;;;;;;;16.38;8.15;;;-0.70;99.90;;;;;;5093660;28;20012;-76
2022/11/19 01:55:44;;;;;;;17.85;8.43;;;-0.70;99.90;;;;;;5093508;28;20044;-77
2022/11/19 01:58:15;;;;;;;20.38;9.00;;;-0.70;99.90;;;;;;5092270;28;20047;-76
2022/11/19 02:00:42;;;;;;;20.10;8.82;;;-0.80;99.90;;;;;;5093504;28;20039;-78
2022/11/19 02:03:10;;;;;;;19.60;8.93;;;-0.70;99.90;;;;;;5092567;28;20016;-75
2022/11/19 02:05:36;;;;;;;18.35;8.90;;;-0.70;99.90;;;;;;5093372;28;20031;-75
2022/11/19 02:08:07;;;;;;;20.02;8.95;;;-0.70;99.90;;;;;;5092939;28;20048;-78
2022/11/19 02:10:51;;;;;;;26.10;9.38;;;-0.80;99.90;;;;;;5092188;28;20090;-75
2022/11/19 02:13:57;;;;;;;23.00;9.95;;;-0.80;99.90;;;;;;5094712;28;20024;-76
2022/11/19 02:16:31;;;;;;;21.73;10.18;;;-0.80;99.90;;;;;;5078976;28;20059;-75
2022/11/19 02:19:05;;;;;;;23.65;9.45;;;-0.90;99.90;;;;;;5094085;28;20028;-76
2022/11/19 02:21:54;;;;;;;25.25;10.23;;;-0.90;99.90;;;;;;5091589;28;20154;-75
2022/11/19 02:25:07;;;;;;;20.13;9.65;;;-0.90;99.90;;;;;;5093418;28;20058;-76
2022/11/19 02:28:06;;;;;;;22.48;10.20;;;-1.00;99.90;;;;;;5041077;28;20036;-77
2022/11/19 02:30:42;;;;;;;21.25;9.95;;;-1.00;99.90;;;;;;5049474;28;20033;-77
2022/11/19 02:33:17;;;;;;;21.30;8.90;;;-1.00;99.90;;;;;;5085029;28;20033;-77
2022/11/19 02:35:54;;;;;;;21.02;9.70;;;-1.00;99.90;;;;;;5093448;28;20047;-76
2022/11/19 02:38:25;;;;;;;19.95;9.35;;;-1.10;99.90;;;;;;5092439;28;20385;-77
2022/11/19 02:41:32;;;;;;;24.90;9.98;;;-1.10;99.90;;;;;;5092575;28;20027;-78
2022/11/19 02:44:57;;;;;;;21.20;9.40;;;-1.10;99.90;;;;;;5093111;28;20032;-76
2022/11/19 02:46:49;;;;;;;18.52;9.55;;;-1.10;99.90;;;;;;5093802;28;20028;-76
2022/11/19 02:49:16;;;;;;;18.13;8.60;;;-1.10;99.90;;;;;;5094423;28;20536;-76
2022/11/19 02:51:42;;;;;;;19.63;8.43;;;-1.10;99.90;;;;;;5091666;28;20049;-76
2022/11/19 02:54:08;;;;;;;18.10;8.60;;;-1.10;99.90;;;;;;5093254;28;20027;-77
2022/11/19 02:56:50;;;;;;;25.05;8.90;;;-1.20;99.90;;;;;;5094506;28;20032;-75
2022/11/19 03:05:46;;;;;;;17.70;8.60;;;-1.20;99.90;;;;;;5091637;28;20031;-76
2022/11/19 03:08:11;;;;;;;19.30;9.10;;;-1.20;99.90;;;;;;5093755;28;20027;-76
2022/11/19 03:11:03;;;;;;;19.25;9.25;;;-1.20;99.90;;;;;;5094446;28;20020;-76
2022/11/19 03:17:04;;;;;;;25.75;9.48;;;-1.30;99.90;;;;;;5093752;28;20052;-75
2022/11/19 03:19:56;;;;;;;17.85;8.85;;;-1.30;99.90;;;;;;5090342;28;20024;-77
2022/11/19 03:22:29;;;;;;;18.17;8.13;;;-1.30;99.90;;;;;;5088334;28;20040;-74
2022/11/19 03:25:00;;;;;;;16.92;8.43;;;-1.30;99.90;;;;;;5103951;28;20043;-75
2022/11/19 03:27:37;;;;;;;20.30;9.10;;;-1.30;99.90;;;;;;5103702;28;20121;-74
2022/11/19 03:30:04;;;;;;;23.90;8.65;;;-1.30;99.90;;;;;;5086901;28;20233;-75
2022/11/19 03:32:42;;;;;;;19.75;9.13;;;-1.40;99.90;;;;;;5101467;28;20029;-75
2022/11/19 03:35:13;;;;;;;20.08;8.73;;;-1.40;99.90;;;;;;5103909;28;20032;-74
2022/11/19 03:37:42;;;;;;;17.80;8.20;;;-1.40;99.90;;;;;;5104008;28;20036;-76
2022/11/19 03:40:10;;;;;;;20.83;8.57;;;-1.40;99.90;;;;;;5082947;28;20017;-76
2022/11/19 03:42:37;;;;;;;19.08;8.68;;;-1.50;99.90;;;;;;5083643;28;20025;-74
2022/11/19 03:45:13;;;;;;;17.50;8.50;;;-1.50;99.90;;;;;;5083899;28;20037;-77
2022/11/19 03:47:42;;;;;;;17.73;8.68;;;-1.50;99.90;;;;;;5082163;28;20030;-75
2022/11/19 03:50:36;;;;;;;21.55;9.65;;;-1.50;99.90;;;;;;5084344;28;20020;-75
2022/11/19 03:53:02;;;;;;;;;;;-1.50;99.90;;;;;;5088233;28;20055;-76
2022/11/19 03:55:34;;;;;;;23.80;9.85;;;-1.60;99.90;;;;;;5087088;28;19904;-77
2022/11/19 03:58:05;;;;;;;17.63;8.35;;;-1.60;99.90;;;;;;5107445;28;20056;-74
2022/11/19 04:00:32;;;;;;;17.40;8.52;;;-1.60;99.90;;;;;;5096287;28;20028;-74
2022/11/19 04:02:59;;;;;;;20.98;8.30;;;-1.60;99.90;;;;;;5104211;28;20024;-73
2022/11/19 04:05:24;;;;;;;18.27;8.82;;;-1.60;99.90;;;;;;5097730;28;20067;-74
2022/11/19 04:07:50;;;;;;;18.73;9.43;;;-1.60;99.90;;;;;;5088134;28;20039;-74
2022/11/19 04:10:16;;;;;;;20.10;9.18;;;-1.60;99.90;;;;;;5086622;28;20020;-73
2022/11/19 04:12:41;;;;;;;20.95;8.88;;;-1.60;99.90;;;;;;5087389;28;20030;-76
2022/11/19 04:15:10;;;;;;;16.20;8.57;;;-1.60;99.90;;;;;;5105515;28;20032;-76
2022/11/19 04:17:36;;;;;;;18.40;8.82;;;-1.70;99.90;;;;;;5106608;28;20064;-76
2022/11/19 04:20:03;;;;;;;18.38;8.82;;;-1.70;99.90;;;;;;5105405;28;20031;-74
2022/11/19 04:22:28;;;;;;;18.92;8.18;;;-1.70;99.90;;;;;;5101380;28;20036;-74
2022/11/19 04:24:54;;;;;;;20.50;9.00;;;-1.70;99.90;;;;;;5106290;28;20035;-75
2022/11/19 04:27:19;;;;;;;21.65;9.73;;;-1.70;99.90;;;;;;5106570;28;20492;-75
2022/11/19 04:29:45;;;;;;;18.05;8.43;;;-1.70;99.90;;;;;;5087427;28;20028;-74
2022/11/19 04:32:11;;;;;;;20.10;8.43;;;-1.70;99.90;;;;;;5091687;28;20050;-76
2022/11/19 04:34:36;;;;;;;18.50;8.82;;;-1.70;99.90;;;;;;5091152;28;20079;-76
2022/11/19 04:37:02;;;;;;;21.00;8.77;;;-1.70;99.90;;;;;;5085094;28;20451;-75
2022/11/19 04:39:27;;;;;;;21.75;9.77;;;-1.80;99.90;;;;;;5086229;28;20043;-74
2022/11/19 04:41:53;;;;;;;21.13;9.30;;;-1.80;99.90;;;;;;5086064;28;20467;-74
2022/11/19 04:44:19;;;;;;;19.92;8.40;;;-1.80;99.90;;;;;;5085636;28;20025;-75
2022/11/19 04:46:44;;;;;;;18.15;8.48;;;-1.80;99.90;;;;;;5086222;28;20097;-74
2022/11/19 04:49:10;;;;;;;19.45;9.25;;;-1.80;99.90;;;;;;5086168;28;20031;-75
2022/11/19 04:51:36;;;;;;;21.05;8.88;;;-1.80;99.90;;;;;;5092626;28;20028;-76
2022/11/19 04:54:01;;;;;;;21.20;9.38;;;-1.80;99.90;;;;;;5086146;28;20035;-74
2022/11/19 04:56:27;;;;;;;18.40;9.00;;;-1.90;99.90;;;;;;5084396;28;20067;-74
2022/11/19 04:58:52;;;;;;;21.83;9.35;;;-1.90;99.90;;;;;;5103902;28;20098;-74
2022/11/19 05:01:19;;;;;;;18.58;8.70;;;-1.90;99.90;;;;;;5095416;28;20074;-74
2022/11/19 05:03:46;;;;;;;20.52;9.95;;;-1.90;99.90;;;;;;5085131;28;20088;-74
2022/11/19 05:06:12;;;;;;;20.55;8.98;;;-1.90;99.90;;;;;;5085206;28;20024;-76
2022/11/19 05:08:38;;;;;;;23.67;9.20;;;-1.90;99.90;;;;;;5085903;28;20031;-74
2022/11/19 05:11:03;;;;;;;21.00;9.40;;;-2.00;99.90;;;;;;5087143;28;20119;-74
2022/11/19 05:13:29;;;;;;;23.48;9.68;;;-2.00;99.90;;;;;;5106294;28;20032;-74
2022/11/19 05:15:55;;;;;;;20.58;8.77;;;-2.00;99.90;;;;;;5106019;28;20039;-74
2022/11/19 05:18:20;;;;;;;18.30;8.85;;;-2.00;99.90;;;;;;5097770;28;20031;-75
2022/11/19 05:20:47;;;;;;;17.40;8.68;;;-1.90;99.90;;;;;;5084300;28;20117;-74
2022/11/19 05:23:12;;;;;;;20.38;9.35;;;-1.90;99.90;;;;;;5083652;28;20059;-73
2022/11/19 05:25:38;;;;;;;21.85;9.82;;;-1.90;99.90;;;;;;5083783;28;20021;-75
2022/11/19 05:28:04;;;;;;;22.55;9.35;;;-2.00;99.90;;;;;;5085351;28;20039;-74
2022/11/19 05:30:29;;;;;;;23.58;9.68;;;-2.00;99.90;;;;;;5085337;28;20024;-73
2022/11/19 05:32:55;;;;;;;19.67;8.27;;;-2.00;99.90;;;;;;5084693;28;20020;-75
2022/11/19 05:35:21;;;;;;;19.40;8.73;;;-2.00;99.90;;;;;;5093484;28;20453;-73
2022/11/19 05:37:50;;;;;;;30.08;9.02;;;-2.00;99.90;;;;;;5084739;28;20436;-75
2022/11/19 05:40:16;;;;;;;22.55;8.68;;;-2.00;99.90;;;;;;5084880;28;20052;-76
2022/11/19 05:42:42;;;;;;;26.65;10.15;;;-2.00;99.90;;;;;;5084181;28;20354;-77
2022/11/19 05:45:09;;;;;;;17.58;8.40;;;-1.90;99.90;;;;;;5084386;28;20035;-77
2022/11/19 05:47:35;;;;;;;20.35;9.15;;;-2.00;99.90;;;;;;5084150;28;20017;-75
2022/11/19 05:50:01;;;;;;;20.80;9.45;;;-2.00;99.90;;;;;;5084892;28;20029;-76
2022/11/19 05:52:27;;;;;;;21.98;9.80;;;-2.00;99.90;;;;;;5083644;28;20082;-75
2022/11/19 05:54:52;;;;;;;22.73;9.43;;;-2.00;99.90;;;;;;5092270;28;20031;-76
2022/11/19 05:57:18;;;;;;;17.25;8.40;;;-2.00;99.90;;;;;;5096514;28;20079;-76
2022/11/19 05:59:43;;;;;;;18.10;8.45;;;-2.00;99.90;;;;;;5099838;28;20756;-77
2022/11/19 06:02:10;;;;;;;21.65;8.77;;;-1.90;99.90;;;;;;5084088;28;20025;-75
2022/11/19 06:04:36;;;;;;;18.02;8.32;;;-2.00;99.90;;;;;;5084564;28;20498;-76
2022/11/19 06:07:01;;;;;;;18.65;8.82;;;-2.00;99.90;;;;;;5098697;28;20036;-76
2022/11/19 06:09:27;;;;;;;18.17;8.40;;;-1.90;99.90;;;;;;5104053;28;20051;-78
2022/11/19 06:11:53;;;;;;;19.58;9.20;;;-1.90;99.90;;;;;;5095018;28;20036;-75
2022/11/19 06:14:24;;;;;;;19.42;8.98;;;-1.90;99.90;;;;;;5084105;28;20024;-75
2022/11/19 06:16:55;;;;;;;17.23;8.35;;;-1.90;99.90;;;;;;5083198;28;20049;-77
2022/11/19 06:19:21;;;;;;;21.02;9.00;;;-1.90;99.90;;;;;;5084470;28;20029;-74
2022/11/19 06:21:48;;;;;;;18.77;8.73;;;-1.90;99.90;;;;;;5083827;28;20055;-76
2022/11/19 06:24:14;;;;;;;20.27;8.77;;;-1.90;99.90;;;;;;5083331;28;20036;-76
2022/11/19 06:26:40;;;;;;;18.85;9.65;;;-1.90;99.90;;;;;;5084261;28;20025;-77
2022/11/19 06:29:06;;;;;;;22.15;10.18;;;-1.90;99.90;;;;;;5083760;28;20021;-77
2022/11/19 06:31:32;;;;;;;19.23;9.02;;;-1.90;99.90;;;;;;5084046;28;20735;-79
2022/11/19 06:33:58;;;;;;;19.38;8.98;;;-1.90;99.90;;;;;;5084124;28;20032;-77
2022/11/19 06:36:24;;;;;;;24.80;9.75;;;-1.90;99.90;;;;;;5089864;28;20119;-74
2022/11/19 06:38:51;;;;;;;17.98;9.18;;;-1.90;99.90;;;;;;5087305;28;20028;-74
2022/11/19 06:41:17;;;;;;;22.77;10.32;;;-1.90;99.90;;;;;;5083914;28;20029;-76
2022/11/19 06:43:43;;;;;;;23.30;10.57;;;-1.90;99.90;;;;;;5081645;28;20077;-76
2022/11/19 06:46:10;;;;;;;21.08;9.95;;;-1.80;99.90;;;;;;5086857;28;20064;-77
2022/11/19 06:48:36;;;;;;;22.85;10.00;;;-1.90;99.90;;;;;;5101802;28;20360;-77
2022/11/19 06:51:02;;;;;;;25.60;9.73;;;-1.90;99.90;;;;;;5088506;28;20032;-79
2022/11/19 06:53:28;;;;;;;19.58;9.05;;;-1.90;99.90;;;;;;5094773;28;20046;-78
2022/11/19 06:56:05;;;;;;;19.33;9.20;;;-1.80;99.90;;;;;;5085932;28;20036;-80
2022/11/19 06:58:31;;;;;;;24.33;9.85;;;-1.90;99.90;;;;;;5096038;28;20024;-79
2022/11/19 07:00:56;;;;;;;22.05;9.80;;;-1.90;99.90;;;;;;5089690;28;20652;-79
2022/11/19 07:03:23;;;;;;;21.50;10.20;;;-1.90;99.90;;;;;;5093671;28;20056;-80
2022/11/19 07:05:53;;;;;;;26.15;9.82;;;-1.90;99.90;;;;;;5098126;28;20058;-79
2022/11/19 07:08:19;;;;;;;24.35;10.07;;;-1.90;99.90;;;;;;5090241;28;20028;-78
2022/11/19 07:10:44;;;;;;;24.52;10.60;;;-2.00;99.90;;;;;;5093294;28;20058;-79
2022/11/19 07:13:10;;;;;;;23.00;10.20;;;-2.00;99.90;;;;;;5089170;28;20040;-80
2022/11/19 07:15:36;;;;;;;24.13;10.45;;;-2.00;99.90;;;;;;5082931;28;20107;-79
2022/11/19 07:18:02;;;;;;;22.33;10.60;;;-2.00;99.90;;;;;;5095038;28;20040;-79
2022/11/19 07:20:28;;;;;;;31.52;11.18;;;-2.00;99.90;;;;;;5100364;28;20028;-79
2022/11/19 07:22:53;;;;;;;21.30;10.63;;;-2.00;99.90;;;;;;5089527;28;20125;-79
2022/11/19 07:25:19;;;;;;;22.55;9.70;;;-1.80;99.90;;;;;;5091418;28;20025;-78
2022/11/19 07:27:46;;;;;;;27.73;10.95;;;-1.90;99.90;;;;;;5089674;28;20053;-79
2022/11/19 07:30:13;;;;;;;22.02;10.05;;;-1.80;99.90;;;;;;5107914;28;20020;-80
2022/11/19 07:32:39;;;;;;;23.38;10.52;;;-1.70;99.90;;;;;;5096959;28;20020;-79
2022/11/19 07:35:05;;;;;;;23.20;9.98;;;-1.60;99.90;;;;;;5094694;28;20052;-78
2022/11/19 07:37:31;;;;;;;23.42;9.85;;;-1.50;99.90;;;;;;5088260;28;20064;-79
2022/11/19 07:39:56;;;;;;;18.80;8.75;;;-1.40;99.90;;;;;;5089474;28;20021;-79
2022/11/19 07:45:07;;;;;;;16.38;8.10;;;-1.00;99.90;;;;;;5097331;28;20035;-76
2022/11/19 07:47:34;;;;;;;21.73;8.85;;;-0.80;99.90;;;;;;5100517;28;20044;-77
2022/11/19 07:49:59;;;;;;;15.55;8.15;;;-0.70;99.90;;;;;;5099423;28;20032;-77
2022/11/19 07:52:25;;;;;;;17.70;8.18;;;-0.60;99.90;;;;;;5094194;28;20032;-75
2022/11/19 07:54:50;;;;;;;18.90;8.07;;;-0.50;99.90;;;;;;5105846;28;20035;-76
2022/11/19 07:57:16;;;;;;;15.77;7.93;;;-0.20;99.90;;;;;;5103140;28;20040;-77
2022/11/19 07:59:42;;;;;;;15.32;6.88;;;0.20;99.90;;;;;;5105816;28;20028;-75
2022/11/19 08:02:11;;;;;;;15.70;7.35;;;0.60;99.90;;;;;;5107273;28;20050;-78
2022/11/19 08:04:37;;;;;;;15.50;8.00;;;1.10;99.90;;;;;;5101625;28;20029;-76
2022/11/19 08:07:03;;;;;;;17.42;8.38;;;1.50;99.90;;;;;;5098190;28;20035;-77
2022/11/19 08:09:29;;;;;;;16.73;8.15;;;1.90;99.90;;;;;;5092588;28;20024;-78
2022/11/19 08:11:54;;;;;;;16.67;7.85;;;2.20;99.90;;;;;;5088094;28;20021;-77
2022/11/19 08:14:21;;;;;;;14.80;7.55;;;2.50;99.90;;;;;;5092832;28;20043;-76
2022/11/19 08:19:31;;;;;;;13.52;7.18;;;3.10;99.90;;;;;;5090574;28;20035;-76
2022/11/19 08:21:57;;;;;;;12.73;6.97;;;3.30;99.90;;;;;;5092652;28;20076;-76
2022/11/19 08:24:22;;;;;;;13.77;7.20;;;3.30;99.90;;;;;;5090877;28;20046;-77
2022/11/19 08:26:49;;;;;;;17.20;8.05;;;3.20;99.90;;;;;;5088906;28;20059;-78
2022/11/19 08:29:16;;;;;;;20.08;8.75;;;3.10;99.90;;;;;;5090945;28;20129;-77
2022/11/19 08:31:44;;;;;;;15.63;7.57;;;2.90;99.90;;;;;;5096387;28;20120;-75
2022/11/19 08:34:11;;;;;;;18.25;8.23;;;2.80;99.90;;;;;;5098906;28;20080;-76
2022/11/19 08:36:36;;;;;;;18.83;8.52;;;2.60;99.90;;;;;;5093373;28;20058;-77
2022/11/19 08:39:03;;;;;;;16.27;8.48;;;2.40;99.90;;;;;;5097375;28;20020;-76
2022/11/19 08:44:13;;;;;;;17.33;8.50;;;2.20;99.90;;;;;;5095980;28;20032;-78
2022/11/19 08:46:40;;;;;;;21.38;8.65;;;2.10;99.90;;;;;;5093971;28;20041;-76
2022/11/19 08:49:12;;;;;;;15.75;7.78;;;2.10;99.90;;;;;;5084898;28;20028;-78
2022/11/19 08:51:38;;;;;;;15.68;8.10;;;2.10;99.90;;;;;;5084654;28;20033;-76
2022/11/19 08:54:04;;;;;;;14.88;8.23;;;2.10;99.90;;;;;;5086173;28;20028;-76
2022/11/19 08:56:30;;;;;;;18.42;8.15;;;2.10;99.90;;;;;;5087836;28;20036;-77
2022/11/19 08:58:55;;;;;;;15.00;8.10;;;2.10;99.90;;;;;;5092831;28;20481;-77
2022/11/19 09:01:21;;;;;;;15.57;8.20;;;2.20;99.90;;;;;;5088064;28;20029;-75
2022/11/19 09:03:47;;;;;;;16.42;7.38;;;2.20;99.90;;;;;;5094320;28;20020;-76
2022/11/19 09:06:12;;;;;;;13.40;7.13;;;2.30;99.90;;;;;;5105804;28;20054;-75
2022/11/19 09:08:40;;;;;;;14.82;7.68;;;2.30;99.90;;;;;;5087997;28;20834;-75
2022/11/19 09:11:11;;;;;;;16.15;7.32;;;2.40;99.90;;;;;;5086490;28;20240;-76
2022/11/19 09:13:37;;;;;;;16.10;7.45;;;2.30;99.90;;;;;;5092367;28;20028;-75
2022/11/19 09:16:03;;;;;;;15.70;7.47;;;2.30;99.90;;;;;;5094225;28;20088;-77
2022/11/19 09:18:29;;;;;;;12.18;6.70;;;2.40;99.90;;;;;;5095172;28;20021;-77
2022/11/19 09:20:56;;;;;;;14.50;7.00;;;2.50;99.90;;;;;;5083399;28;20021;-75
2022/11/19 09:23:22;;;;;;;16.92;7.18;;;2.60;99.90;;;;;;5089356;28;20029;-77
2022/11/19 09:25:59;;;;;;;15.07;6.85;;;2.70;99.90;;;;;;5095244;28;20035;-75
2022/11/19 09:28:26;;;;;;;14.55;6.95;;;2.80;99.90;;;;;;5085422;28;20024;-75
2022/11/19 09:30:57;;;;;;;14.75;6.82;;;2.90;99.90;;;;;;5096233;28;20024;-75
2022/11/19 09:33:23;;;;;;;24.23;10.85;;;3.00;99.90;;;;;;5104946;28;20031;-75
2022/11/19 09:35:49;;;;;;;12.93;6.28;;;3.10;99.90;;;;;;5105572;28;20031;-77
2022/11/19 09:38:14;;;;;;;13.23;6.82;;;3.20;99.90;;;;;;5095098;28;20044;-77
2022/11/19 09:40:48;;;;;;;14.20;6.85;;;3.30;99.90;;;;;;5090862;28;20076;-73
2022/11/19 09:43:39;;;;;;;15.15;6.65;;;3.40;99.90;;;;;;5091918;28;20060;-78
2022/11/19 09:46:53;;;;;;;44.33;19.17;;;3.40;99.90;;;;;;5087547;28;20028;-73
2022/11/19 09:49:45;;;;;;;15.80;7.13;;;3.50;99.90;;;;;;5078805;28;20431;-76
2022/11/19 09:52:17;;;;;;;15.00;7.03;;;3.60;99.90;;;;;;5101307;28;20104;-77
2022/11/19 09:54:50;;;;;;;14.98;7.30;;;3.50;99.90;;;;;;5094665;28;20039;-77
2022/11/19 09:57:41;;;;;;;23.13;8.32;;;3.60;99.90;;;;;;5089344;28;20041;-74
2022/11/19 10:00:07;;;;;;;15.30;7.22;;;3.70;99.90;;;;;;5083861;28;20071;-77
2022/11/19 10:02:34;;;;;;;13.65;6.65;;;3.90;99.90;;;;;;5086169;28;20085;-76
2022/11/19 10:04:59;;;;;;;16.52;7.10;;;4.00;99.90;;;;;;5094388;28;20115;-76
2022/11/19 10:07:52;;;;;;;11.35;6.47;;;4.10;99.90;;;;;;5082812;28;20075;-73
2022/11/19 10:10:29;;;;;;;13.63;6.47;;;4.10;99.90;;;;;;5085871;28;20031;-76
2022/11/19 10:13:13;;;;;;;12.43;5.70;;;4.10;99.90;;;;;;5098110;28;20036;-75
2022/11/19 10:16:01;;;;;;;12.80;6.57;;;4.20;99.90;;;;;;5089163;28;20027;-75
2022/11/19 10:18:39;;;;;;;16.10;6.80;;;4.40;99.90;;;;;;5092337;28;20041;-76
2022/11/19 10:21:21;;;;;;;12.98;6.63;;;4.40;99.90;;;;;;5089437;28;20576;-75
2022/11/19 10:24:02;;;;;;;16.13;7.18;;;4.40;99.90;;;;;;5089613;28;20040;-77
2022/11/19 10:26:40;;;;;;;17.45;7.50;;;4.50;99.90;;;;;;5093999;28;20028;-74
2022/11/19 10:29:22;;;;;;;13.90;7.05;;;4.60;99.90;;;;;;5093364;28;20032;-75
2022/11/19 10:31:50;;;;;;;18.83;6.60;;;4.70;99.90;;;;;;5099732;28;20040;-75
2022/11/19 10:34:15;;;;;;;14.30;7.65;;;4.60;99.90;;;;;;5095279;28;20023;-73
2022/11/19 10:36:46;;;;;;;14.50;7.05;;;4.70;99.90;;;;;;5096468;28;20051;-73
2022/11/19 10:39:37;;;;;;;13.38;6.20;;;4.90;99.90;;;;;;5090222;28;20107;-75
2022/11/19 10:42:23;;;;;;;11.25;6.50;;;4.90;99.90;;;;;;5087881;28;20040;-73
2022/11/19 10:44:54;;;;;;;13.75;6.30;;;5.00;99.90;;;;;;5092742;28;20032;-73
2022/11/19 10:47:32;;;;;;;18.17;7.60;;;5.00;99.90;;;;;;5084030;28;20029;-73
2022/11/19 10:49:58;;;;;;;22.23;9.38;;;5.00;99.90;;;;;;5082468;28;20063;-73
2022/11/19 10:52:41;;;;;;;14.57;7.32;;;5.00;99.90;;;;;;5084222;28;20086;-75
2022/11/19 10:55:27;;;;;;;11.57;6.35;;;5.10;99.90;;;;;;5101110;28;20035;-72
2022/11/19 10:58:06;;;;;;;11.35;6.05;;;5.20;99.90;;;;;;5085060;28;20858;-73
2022/11/19 11:00:33;;;;;;;11.93;6.32;;;5.20;99.90;;;;;;5100211;28;20028;-72
2022/11/19 11:03:04;;;;;;;11.05;6.00;;;5.20;99.90;;;;;;5095963;28;20028;-72
2022/11/19 11:05:30;;;;;;;12.93;6.25;;;5.50;99.90;;;;;;5104972;28;20050;-73
2022/11/19 11:07:58;;;;;;;13.38;6.15;;;5.80;99.90;;;;;;5090437;28;20032;-72
2022/11/19 11:10:33;;;;;;;11.65;6.32;;;6.20;99.90;;;;;;5087832;28;20032;-71
2022/11/19 11:16:05;;;;;;;11.30;5.72;;;6.60;99.90;;;;;;5096566;28;20039;-71
2022/11/19 11:18:31;;;;;;;12.02;5.60;;;6.40;99.90;;;;;;5102047;28;20115;-74
2022/11/19 11:20:58;;;;;;;12.35;5.60;;;6.30;99.90;;;;;;5087888;28;20017;-73
2022/11/19 11:23:26;;;;;;;13.57;5.88;;;6.30;99.90;;;;;;5093370;28;20028;-74
2022/11/19 11:25:57;;;;;;;11.30;6.13;;;6.40;99.90;;;;;;5098596;28;20028;-72
2022/11/19 11:28:24;;;;;;;11.60;5.40;;;6.40;99.90;;;;;;5094384;28;20037;-73
2022/11/19 11:31:13;;;;;;;13.25;6.32;;;6.50;99.90;;;;;;5095260;28;20024;-73
2022/11/19 11:33:53;;;;;;;11.75;5.85;;;6.70;99.90;;;;;;5098089;28;20024;-74
2022/11/19 11:36:21;;;;;;;9.95;5.95;;;7.10;99.90;;;;;;5088616;28;20377;-73
2022/11/19 11:38:49;;;;;;;10.55;5.65;;;7.50;99.90;;;;;;5087679;28;20024;-73
2022/11/19 11:41:18;;;;;;;11.93;6.35;;;7.60;99.90;;;;;;5095765;28;20028;-75
2022/11/19 11:44:01;;;;;;;13.25;5.80;;;7.50;99.90;;;;;;5095961;28;20032;-73
2022/11/19 11:46:37;;;;;;;11.63;5.75;;;7.50;99.90;;;;;;5089799;28;20031;-74
2022/11/19 11:49:05;;;;;;;10.90;5.45;;;7.40;99.90;;;;;;5087619;28;20056;-74
2022/11/19 11:51:38;;;;;;;11.93;6.38;;;7.30;99.90;;;;;;5097647;28;20024;-73
2022/11/19 11:54:24;;;;;;;14.05;5.60;;;7.30;99.90;;;;;;5090734;28;20080;-75
2022/11/19 11:56:49;;;;;;;11.52;5.93;;;7.20;99.90;;;;;;5086977;28;20048;-76
2022/11/19 11:59:23;;;;;;;11.73;6.03;;;7.30;99.90;;;;;;5094610;28;20064;-76
2022/11/19 12:02:04;;;;;;;12.20;5.75;;;7.20;99.90;;;;;;5085748;28;20071;-74
2022/11/19 12:04:30;;;;;;;10.98;5.97;;;7.20;99.90;;;;;;5097378;28;20032;-75
2022/11/19 12:07:05;;;;;;;16.67;6.90;;;7.30;99.90;;;;;;5105442;28;20031;-76
2022/11/19 12:09:36;;;;;;;9.88;5.72;;;7.20;99.90;;;;;;5105789;28;20032;-74
2022/11/19 12:12:31;;;;;;;13.23;6.07;;;7.20;99.90;;;;;;5091116;28;20055;-75
2022/11/19 12:15:20;;;;;;;10.95;6.15;;;7.30;99.90;;;;;;5080787;28;20072;-74
2022/11/19 12:18:16;;;;;;;15.40;7.18;;;7.40;99.90;;;;;;5092761;28;20126;-75
2022/11/19 12:21:08;;;;;;;12.73;5.80;;;7.60;99.90;;;;;;5086660;28;20050;-77
2022/11/19 12:23:55;;;;;;;12.57;6.50;;;7.70;99.90;;;;;;5103372;28;20122;-77
2022/11/19 12:26:32;;;;;;;11.88;6.15;;;7.70;99.90;;;;;;5090345;28;20025;-75
2022/11/19 12:29:29;;;;;;;9.82;5.40;;;7.70;99.90;;;;;;5088290;28;20028;-75
2022/11/19 12:32:00;;;;;;;12.02;5.82;;;7.70;99.90;;;;;;5087437;28;20219;-76
2022/11/19 12:34:53;;;;;;;11.43;5.28;;;7.50;99.90;;;;;;5086975;28;20032;-75
2022/11/19 12:37:46;;;;;;;11.18;6.78;;;7.60;99.90;;;;;;5086370;28;20039;-75
2022/11/19 12:40:21;;;;;;;12.63;6.35;;;7.60;99.90;;;;;;5086348;28;20028;-75
2022/11/19 12:42:55;;;;;;;;;;;7.50;99.90;;;;;;5099390;28;20047;-76
2022/11/19 12:45:49;;;;;;;17.10;5.75;;;7.50;99.90;;;;;;5101317;28;19979;-75
2022/11/19 12:48:36;;;;;;;12.68;6.70;;;7.40;99.90;;;;;;5099952;28;20084;-76
2022/11/19 12:51:05;;;;;;;13.35;6.45;;;7.30;99.90;;;;;;5106442;28;20660;-75
2022/11/19 12:53:43;;;;;;;14.25;7.55;;;7.20;99.90;;;;;;5105907;28;20056;-75
2022/11/19 12:56:26;;;;;;;19.92;9.68;;;7.10;99.90;;;;;;5096348;28;20032;-75
2022/11/19 12:59:06;;;;;;;12.98;6.20;;;7.00;99.90;;;;;;5085803;28;20036;-76
2022/11/19 13:01:36;;;;;;;14.32;5.43;;;6.80;99.90;;;;;;5086024;28;20029;-76
2022/11/19 13:04:10;;;;;;;13.20;6.80;;;6.80;99.90;;;;;;5085957;28;20027;-75
2022/11/19 13:06:59;;;;;;;10.93;5.10;;;6.90;99.90;;;;;;5085317;28;20039;-77
2022/11/19 13:09:37;;;;;;;8.75;4.95;;;7.00;99.90;;;;;;5083920;28;20028;-75
2022/11/19 13:12:20;;;;;;;14.25;7.35;;;7.20;99.90;;;;;;5083406;28;20024;-75
2022/11/19 13:14:56;;;;;;;11.85;5.85;;;7.40;99.90;;;;;;5085564;28;20032;-76
2022/11/19 13:17:36;;;;;;;20.88;6.75;;;7.60;99.90;;;;;;5085726;28;20040;-75
2022/11/19 13:20:05;;;;;;;12.32;5.53;;;7.80;99.90;;;;;;5100248;28;20040;-77
2022/11/19 13:22:35;;;;;;;12.20;6.65;;;8.00;99.90;;;;;;5094555;28;20040;-77
2022/11/19 13:25:01;;;;;;;12.27;5.63;;;8.20;99.90;;;;;;5085223;28;20020;-78
2022/11/19 13:27:29;;;;;;;8.60;5.07;;;8.50;99.90;;;;;;5084826;28;20028;-76
2022/11/19 13:30:00;;;;;;;12.10;6.03;;;8.70;99.90;;;;;;5084854;28;20025;-78